Overview Statistics Trail Chart Weather Telemetry Raw packets
 

This is the latest recevied weather packets stored in our database for station/object SP4MGL-10. If no packets are shown the sender has not sent any weather packets the latest 10 day(s).

<< 12 13 14 15 16 17 18 >>
Time Temp. Humidity Pressure Rain* Wind** Luminosity Snow
1788175421 26.67° C 47% 1014.8 hPa - - - -
1788174521 25° C 51% 1015 hPa - - - -
1788173621 27.22° C 46% 1014.7 hPa - - - -
1788172721 27.22° C 48% 1014.7 hPa - - - -
1788171821 23.33° C 57% 1014.6 hPa - - - -
1788170923 22.78° C 58% 1014.7 hPa - - - -
1788170021 23.33° C 59% 1014.8 hPa - - - -
1788169121 22.78° C 62% 1014.8 hPa - - - -
1788168221 22.78° C 62% 1014.8 hPa - - - -
1788167320 22.22° C 66% 1014.8 hPa - - - -
1788166420 21.67° C 68% 1014.9 hPa - - - -
1788165520 21.11° C 70% 1015 hPa - - - -
1788164620 20.56° C 73% 1015 hPa - - - -
1788163720 20.56° C 75% 1015 hPa - - - -
1788162820 20° C 78% 1014.9 hPa - - - -
1788161920 18.89° C 81% 1014.9 hPa - - - -
1788161020 18.89° C 83% 1014.9 hPa - - - -
1788160120 18.33° C 85% 1015 hPa - - - -
1788159220 17.78° C 87% 1014.9 hPa - - - -
1788158319 17.22° C 89% 1014.9 hPa - - - -
1788157419 17.22° C 89% 1014.9 hPa - - - -
1788156518 16.67° C 91% 1014.9 hPa - - - -
1788155618 16.11° C 93% 1015 hPa - - - -
1788154718 16.11° C 93% 1015 hPa - - - -
1788154583 16.11° C 93% 1014.7 hPa - - - -

* Rain since midnight (hover to see other rain measurements)
** Current wind speed in m/s (hover to see current wind gust speed)